createdAt,value
2019-03-18T00:00:38.041Z,3.63
2019-03-18T00:01:38.032Z,3.46
2019-03-18T00:02:38.079Z,3.63
2019-03-18T00:03:38.045Z,3.66
2019-03-18T00:04:38.012Z,3.62
2019-03-18T00:05:37.989Z,3.49
2019-03-18T00:06:37.991Z,3.66
2019-03-18T00:07:37.971Z,3.64
2019-03-18T00:08:37.958Z,3.60
2019-03-18T00:09:37.962Z,3.62
2019-03-18T00:10:37.937Z,3.62
2019-03-18T00:11:37.921Z,3.64
2019-03-18T00:12:37.913Z,3.63
2019-03-18T00:13:37.902Z,3.72
2019-03-18T00:14:37.903Z,3.66
2019-03-18T00:15:37.887Z,3.67
2019-03-18T00:16:37.886Z,3.59
2019-03-18T00:17:37.861Z,3.59
2019-03-18T00:18:37.848Z,3.46
2019-03-18T00:19:37.848Z,3.45
2019-03-18T00:20:37.824Z,3.46
2019-03-18T00:21:37.816Z,3.54
2019-03-18T00:22:37.819Z,3.54
2019-03-18T00:23:37.799Z,3.46
2019-03-18T00:24:37.799Z,3.54
2019-03-18T00:25:37.778Z,3.56
2019-03-18T00:26:37.763Z,3.52
2019-03-18T00:27:37.751Z,3.46
2019-03-18T00:28:37.757Z,3.66
2019-03-18T00:29:37.751Z,3.72
2019-03-18T00:30:37.724Z,3.67
2019-03-18T00:31:37.709Z,3.67
2019-03-18T00:32:37.701Z,3.60
2019-03-18T00:33:37.693Z,3.55
2019-03-18T00:34:37.707Z,3.63
2019-03-18T00:35:37.669Z,3.60
2019-03-18T00:36:37.656Z,3.63
2019-03-18T00:37:37.643Z,3.60
2019-03-18T00:38:37.633Z,3.60
2019-03-18T00:39:37.640Z,3.46
2019-03-18T00:40:37.621Z,3.49
2019-03-18T00:41:37.603Z,3.51
2019-03-18T00:42:37.594Z,3.48
2019-03-18T00:43:37.581Z,3.49
2019-03-18T00:44:37.581Z,3.48
2019-03-18T00:45:40.300Z,3.54
2019-03-18T00:46:37.569Z,3.49
2019-03-18T00:47:37.537Z,3.45
2019-03-18T00:48:37.556Z,3.52
2019-03-18T00:49:37.529Z,3.54
2019-03-18T00:50:37.505Z,3.49
2019-03-18T00:51:37.497Z,3.59
2019-03-18T00:52:37.498Z,3.62
2019-03-18T00:53:37.487Z,3.69
2019-03-18T00:54:37.472Z,3.62
2019-03-18T00:55:37.452Z,3.64
2019-03-18T00:56:37.442Z,3.70
2019-03-18T00:57:37.434Z,3.62
2019-03-18T00:58:37.418Z,3.63
2019-03-18T00:59:37.441Z,3.66
2019-03-18T01:00:37.398Z,3.62
2019-03-18T01:01:37.384Z,3.67
2019-03-18T01:02:37.376Z,3.66
2019-03-18T01:03:37.366Z,3.66
2019-03-18T01:04:37.371Z,3.63
2019-03-18T01:05:37.363Z,3.67
2019-03-18T01:06:37.348Z,3.67
2019-03-18T01:07:37.341Z,3.70
2019-03-18T01:08:37.313Z,3.67
2019-03-18T01:09:37.317Z,3.70
2019-03-18T01:10:37.295Z,3.64
2019-03-18T01:11:37.298Z,3.63
2019-03-18T01:12:37.282Z,3.62
2019-03-18T01:13:37.259Z,3.59
2019-03-18T01:14:37.262Z,3.56
2019-03-18T01:15:37.234Z,3.66
2019-03-18T01:16:37.225Z,3.66
2019-03-18T01:17:37.222Z,3.62
2019-03-18T01:18:37.217Z,3.56
2019-03-18T01:19:37.216Z,3.51
2019-03-18T01:20:37.206Z,3.52
2019-03-18T01:21:37.176Z,3.49
2019-03-18T01:22:37.164Z,3.48
2019-03-18T01:23:37.152Z,3.51
2019-03-18T01:24:37.160Z,3.60
2019-03-18T01:25:37.131Z,3.60
2019-03-18T01:26:37.123Z,3.56
2019-03-18T01:27:37.120Z,3.48
2019-03-18T01:28:37.251Z,3.60
2019-03-18T01:29:37.139Z,3.62
2019-03-18T01:30:37.074Z,3.66
2019-03-18T01:31:37.091Z,3.62
2019-03-18T01:32:37.057Z,3.63
2019-03-18T01:33:37.044Z,3.66
2019-03-18T01:34:37.067Z,3.63
2019-03-18T01:35:39.871Z,3.60
2019-03-18T01:36:37.012Z,3.60
2019-03-18T01:37:37.002Z,3.63
2019-03-18T01:38:36.990Z,3.51
2019-03-18T01:39:37.007Z,3.48
2019-03-18T01:40:36.967Z,3.55
2019-03-18T01:41:36.956Z,3.55
2019-03-18T01:42:36.948Z,3.54
2019-03-18T01:43:36.934Z,3.59
2019-03-18T01:44:36.942Z,3.64
2019-03-18T01:45:40.987Z,3.66
2019-03-18T01:46:36.908Z,3.63
2019-03-18T01:47:36.892Z,3.73
2019-03-18T01:48:36.883Z,3.82
2019-03-18T01:49:36.896Z,3.80
2019-03-18T01:50:36.863Z,3.81
2019-03-18T01:51:36.893Z,3.67
2019-03-18T01:52:36.906Z,3.78
2019-03-18T01:53:36.831Z,3.82
2019-03-18T01:54:36.823Z,3.69
2019-03-18T01:55:36.822Z,3.66
2019-03-18T01:56:36.801Z,3.62
2019-03-18T01:57:36.797Z,3.60
2019-03-18T01:58:36.781Z,3.63
2019-03-18T01:59:36.766Z,3.60
2019-03-18T02:00:36.776Z,3.51
2019-03-18T02:01:36.743Z,3.60
2019-03-18T02:02:36.735Z,3.63
2019-03-18T02:03:36.726Z,3.62
2019-03-18T02:04:36.773Z,3.63
2019-03-18T02:05:36.720Z,3.63
2019-03-18T02:06:36.695Z,3.69
2019-03-18T02:07:36.691Z,3.63
2019-03-18T02:08:36.667Z,3.66
2019-03-18T02:09:36.673Z,3.60
2019-03-18T02:10:36.664Z,3.56
2019-03-18T02:11:36.636Z,3.62
2019-03-18T02:12:36.630Z,3.48
2019-03-18T02:13:36.625Z,3.54
2019-03-18T02:14:36.611Z,3.52
2019-03-18T02:15:36.607Z,3.46
2019-03-18T02:16:36.586Z,3.51
2019-03-18T02:17:36.582Z,3.45
2019-03-18T02:18:36.567Z,3.52
2019-03-18T02:19:36.550Z,3.48
2019-03-18T02:20:36.557Z,3.46
2019-03-18T02:21:36.529Z,3.49
2019-03-18T02:22:36.519Z,3.41
2019-03-18T02:23:36.515Z,3.37
2019-03-18T02:24:36.501Z,3.44
2019-03-18T02:25:36.505Z,3.44
2019-03-18T02:26:36.472Z,3.49
2019-03-18T02:27:36.466Z,3.49
2019-03-18T02:28:36.460Z,3.51
2019-03-18T02:29:36.457Z,3.42
2019-03-18T02:30:36.463Z,3.36
2019-03-18T02:31:36.421Z,3.30
2019-03-18T02:32:36.424Z,3.46
2019-03-18T02:33:36.402Z,3.45
2019-03-18T02:34:36.392Z,3.45
2019-03-18T02:35:36.398Z,3.48
2019-03-18T02:36:36.396Z,3.36
2019-03-18T02:37:36.378Z,3.41
2019-03-18T02:38:36.351Z,3.45
2019-03-18T02:39:36.337Z,3.44
2019-03-18T02:40:36.347Z,3.32
2019-03-18T02:41:36.352Z,3.33
2019-03-18T02:42:36.302Z,3.20
2019-03-18T02:43:36.308Z,3.25
2019-03-18T02:44:36.302Z,3.26
2019-03-18T02:45:36.289Z,3.23
2019-03-18T02:46:36.262Z,3.15
2019-03-18T02:47:36.249Z,3.17
2019-03-18T02:48:36.239Z,3.11
2019-03-18T02:49:36.236Z,3.17
2019-03-18T02:50:36.254Z,3.14
2019-03-18T02:51:36.208Z,3.17
2019-03-18T02:52:36.197Z,3.17
2019-03-18T02:53:36.187Z,3.27
2019-03-18T02:54:36.176Z,3.27
2019-03-18T02:55:36.178Z,3.26
2019-03-18T02:56:36.174Z,3.20
2019-03-18T02:57:36.184Z,3.30
2019-03-18T02:58:36.174Z,3.26
2019-03-18T02:59:36.123Z,3.26
2019-03-18T03:00:36.131Z,3.11
2019-03-18T03:01:36.097Z,3.22
2019-03-18T03:02:36.109Z,3.18
2019-03-18T03:03:37.259Z,3.14
2019-03-18T03:04:36.066Z,3.23
2019-03-18T03:05:36.087Z,3.20
2019-03-18T03:06:36.045Z,3.22
2019-03-18T03:07:36.052Z,3.25
2019-03-18T03:08:36.031Z,3.22
2019-03-18T03:09:36.024Z,3.23
2019-03-18T03:10:36.005Z,3.15
2019-03-18T03:11:36.020Z,3.12
2019-03-18T03:12:35.988Z,3.15
2019-03-18T03:13:35.984Z,3.11
2019-03-18T03:14:36.097Z,3.14
2019-03-18T03:15:35.962Z,3.12
2019-03-18T03:16:36.053Z,3.17
2019-03-18T03:17:35.944Z,3.22
2019-03-18T03:18:35.936Z,3.17
2019-03-18T03:19:35.950Z,3.18
2019-03-18T03:20:35.918Z,3.23
2019-03-18T03:21:35.904Z,3.22
2019-03-18T03:22:35.880Z,3.25
2019-03-18T03:23:35.913Z,3.18
2019-03-18T03:24:35.854Z,3.22
2019-03-18T03:25:35.845Z,3.14
2019-03-18T03:26:35.850Z,3.20
2019-03-18T03:27:35.822Z,3.25
2019-03-18T03:28:35.821Z,3.35
2019-03-18T03:29:35.797Z,3.20
2019-03-18T03:30:35.804Z,3.25
2019-03-18T03:31:35.793Z,3.25
2019-03-18T03:32:35.768Z,3.25
2019-03-18T03:33:35.779Z,3.33
2019-03-18T03:34:35.760Z,3.37
2019-03-18T03:35:35.739Z,3.35
2019-03-18T03:36:35.744Z,3.30
2019-03-18T03:37:35.717Z,3.35
2019-03-18T03:38:35.709Z,3.36
2019-03-18T03:39:35.690Z,3.42
2019-03-18T03:40:35.686Z,3.36
2019-03-18T03:41:35.688Z,3.32
2019-03-18T03:42:35.663Z,3.22
2019-03-18T03:43:35.710Z,3.36
2019-03-18T03:44:35.652Z,3.41
2019-03-18T03:45:35.631Z,3.33
2019-03-18T03:46:43.164Z,3.29
2019-03-18T03:47:36.607Z,3.29
2019-03-18T03:48:35.593Z,3.30
2019-03-18T03:49:35.600Z,3.37
2019-03-18T03:50:35.574Z,3.41
2019-03-18T03:51:35.580Z,3.42
2019-03-18T03:52:35.577Z,3.46
2019-03-18T03:53:35.544Z,3.49
2019-03-18T03:54:35.537Z,3.36
2019-03-18T03:55:35.524Z,3.41
2019-03-18T03:56:35.637Z,3.36
2019-03-18T03:57:35.497Z,3.42
2019-03-18T03:58:35.489Z,3.37
2019-03-18T03:59:35.478Z,3.48
2019-03-18T04:00:35.480Z,3.45
2019-03-18T04:01:35.477Z,3.46
2019-03-18T04:02:35.445Z,3.44
2019-03-18T04:03:38.661Z,3.48
2019-03-18T04:04:35.436Z,3.44
2019-03-18T04:05:35.413Z,3.42
2019-03-18T04:06:35.430Z,3.45
2019-03-18T04:07:35.400Z,3.60
2019-03-18T04:08:35.388Z,3.48
2019-03-18T04:09:35.370Z,3.51
2019-03-18T04:10:35.362Z,3.52
2019-03-18T04:11:35.407Z,3.62
2019-03-18T04:12:35.360Z,3.59
2019-03-18T04:13:35.334Z,3.62
2019-03-18T04:14:35.315Z,3.49
2019-03-18T04:15:35.312Z,3.52
2019-03-18T04:16:35.321Z,3.48
2019-03-18T04:17:35.282Z,3.51
2019-03-18T04:18:35.287Z,3.51
2019-03-18T04:19:35.282Z,3.46
2019-03-18T04:20:35.254Z,3.54
2019-03-18T04:21:35.258Z,3.45
2019-03-18T04:22:35.229Z,3.48
2019-03-18T04:23:35.221Z,3.48
2019-03-18T04:24:35.233Z,3.49
2019-03-18T04:25:35.208Z,3.56
2019-03-18T04:26:35.217Z,3.46
2019-03-18T04:27:35.192Z,3.42
2019-03-18T04:28:35.169Z,3.46
2019-03-18T04:29:35.156Z,3.46
2019-03-18T04:30:35.151Z,3.46
2019-03-18T04:31:35.159Z,3.48
2019-03-18T04:32:35.123Z,3.64
2019-03-18T04:33:35.124Z,3.59
2019-03-18T04:34:35.122Z,3.72
2019-03-18T04:35:35.090Z,3.69
2019-03-18T04:36:35.096Z,3.67
2019-03-18T04:37:35.070Z,3.82
2019-03-18T04:38:35.129Z,3.87
2019-03-18T04:39:35.047Z,3.84
2019-03-18T04:40:35.045Z,3.84
2019-03-18T04:41:35.121Z,3.90
2019-03-18T04:42:35.019Z,3.94
2019-03-18T04:43:35.011Z,3.90
2019-03-18T04:44:34.994Z,3.94
2019-03-18T04:45:34.991Z,3.98
2019-03-18T04:46:35.017Z,4.03
2019-03-18T04:47:35.004Z,4.00
2019-03-18T04:48:34.977Z,4.00
2019-03-18T04:49:34.981Z,4.16
2019-03-18T04:50:34.975Z,4.06
2019-03-18T04:51:34.937Z,4.08
2019-03-18T04:52:34.938Z,4.17
2019-03-18T04:53:34.899Z,4.12
2019-03-18T04:54:34.899Z,4.18
2019-03-18T04:55:34.925Z,4.17
2019-03-18T04:56:34.891Z,4.18
2019-03-18T04:57:34.871Z,4.18
2019-03-18T04:58:34.851Z,4.17
2019-03-18T04:59:34.835Z,4.21
2019-03-18T05:00:34.825Z,4.21
2019-03-18T05:01:34.825Z,4.21
2019-03-18T05:02:34.855Z,4.24
2019-03-18T05:03:34.791Z,4.27
2019-03-18T05:04:34.779Z,4.20
2019-03-18T05:05:34.769Z,4.28
2019-03-18T05:06:34.767Z,4.28
2019-03-18T05:07:34.795Z,4.30
2019-03-18T05:08:34.741Z,4.38
2019-03-18T05:09:34.729Z,4.36
2019-03-18T05:10:34.719Z,4.41
2019-03-18T05:11:34.706Z,4.41
2019-03-18T05:12:34.711Z,4.43
2019-03-18T05:13:34.727Z,4.45
2019-03-18T05:14:35.133Z,4.46
2019-03-18T05:15:34.667Z,4.49
2019-03-18T05:16:34.653Z,4.42
2019-03-18T05:17:34.675Z,4.54
2019-03-18T05:18:36.677Z,4.54
2019-03-18T05:19:34.620Z,4.56
2019-03-18T05:20:34.620Z,4.56
2019-03-18T05:21:34.605Z,4.67
2019-03-18T05:22:34.612Z,4.60
2019-03-18T05:23:34.580Z,4.61
2019-03-18T05:24:34.568Z,4.64
2019-03-18T05:25:34.556Z,4.66
2019-03-18T05:26:34.557Z,4.61
2019-03-18T05:27:34.569Z,4.64
2019-03-18T05:28:34.524Z,4.64
2019-03-18T05:29:34.518Z,4.60
2019-03-18T05:30:34.502Z,4.60
2019-03-18T05:31:43.116Z,4.60
2019-03-18T05:32:34.497Z,4.63
2019-03-18T05:33:34.576Z,4.61
2019-03-18T05:34:34.456Z,4.63
2019-03-18T05:35:34.450Z,4.63
2019-03-18T05:36:34.450Z,4.64
2019-03-18T05:37:34.442Z,4.63
2019-03-18T05:38:34.424Z,4.61
2019-03-18T05:39:34.422Z,4.63
2019-03-18T05:40:34.392Z,4.64
2019-03-18T05:41:34.386Z,4.64
2019-03-18T05:42:34.400Z,4.63
2019-03-18T05:43:34.370Z,4.60
2019-03-18T05:44:34.367Z,4.57
2019-03-18T05:45:34.344Z,4.64
2019-03-18T05:46:34.329Z,4.61
2019-03-18T05:47:39.098Z,4.63
2019-03-18T05:48:35.304Z,4.71
2019-03-18T05:49:34.296Z,4.66
2019-03-18T05:50:34.287Z,4.71
2019-03-18T05:51:34.276Z,4.71
2019-03-18T05:52:34.278Z,4.77
2019-03-18T05:53:34.271Z,4.71
2019-03-18T05:54:34.246Z,4.67
2019-03-18T05:55:34.235Z,4.69
2019-03-18T05:56:34.224Z,4.71
2019-03-18T05:57:34.222Z,4.75
2019-03-18T05:58:34.203Z,4.75
2019-03-18T05:59:34.203Z,4.74
2019-03-18T06:00:34.178Z,4.79
2019-03-18T06:01:34.166Z,4.74
2019-03-18T06:02:34.173Z,4.72
2019-03-18T06:03:34.149Z,4.69
2019-03-18T06:04:34.139Z,4.72
2019-03-18T06:05:34.128Z,4.79
2019-03-18T06:06:34.114Z,4.78
2019-03-18T06:07:34.193Z,4.79
2019-03-18T06:08:34.089Z,4.79
2019-03-18T06:09:34.079Z,4.77
2019-03-18T06:10:34.071Z,4.79
2019-03-18T06:11:34.068Z,4.89
2019-03-18T06:12:34.065Z,4.91
2019-03-18T06:13:34.035Z,5.00
2019-03-18T06:14:34.047Z,4.85
2019-03-18T06:15:34.017Z,4.97
2019-03-18T06:16:34.003Z,4.96
2019-03-18T06:17:34.025Z,5.00
2019-03-18T06:18:33.985Z,4.96
2019-03-18T06:19:33.971Z,4.93
2019-03-18T06:20:33.965Z,4.97
2019-03-18T06:21:33.950Z,5.03
2019-03-18T06:22:33.953Z,5.04
2019-03-18T06:23:33.935Z,4.96
2019-03-18T06:24:33.948Z,5.06
2019-03-18T06:25:33.909Z,5.09
2019-03-18T06:26:33.895Z,5.11
2019-03-18T06:27:33.903Z,5.06
2019-03-18T06:28:33.877Z,5.07
2019-03-18T06:29:33.873Z,5.06
2019-03-18T06:30:33.873Z,5.14
2019-03-18T06:31:33.841Z,5.18
2019-03-18T06:32:33.854Z,5.21
2019-03-18T06:33:33.821Z,5.18
2019-03-18T06:34:33.810Z,5.29
2019-03-18T06:35:33.803Z,5.24
2019-03-18T06:36:33.830Z,5.21
2019-03-18T06:37:33.778Z,5.29
2019-03-18T06:38:33.787Z,5.29
2019-03-18T06:39:33.768Z,5.24
2019-03-18T06:40:33.749Z,5.27
2019-03-18T06:41:33.743Z,5.30
2019-03-18T06:42:33.752Z,5.27
2019-03-18T06:43:33.736Z,5.25
2019-03-18T06:44:33.702Z,5.34
2019-03-18T06:45:33.693Z,5.32
2019-03-18T06:46:33.685Z,5.32
2019-03-18T06:47:33.673Z,5.32
2019-03-18T06:48:33.688Z,5.34
2019-03-18T06:49:33.654Z,5.37
2019-03-18T06:50:33.650Z,5.27
2019-03-18T06:51:33.631Z,5.30
2019-03-18T06:52:33.618Z,5.32
2019-03-18T06:53:33.649Z,5.29
2019-03-18T06:54:33.612Z,5.34
2019-03-18T06:55:33.586Z,5.32
2019-03-18T06:56:33.577Z,5.29
2019-03-18T06:57:33.562Z,5.33
2019-03-18T06:58:33.570Z,5.27
2019-03-18T06:59:33.545Z,5.30
2019-03-18T07:00:33.542Z,5.34
2019-03-18T07:01:33.528Z,5.29
2019-03-18T07:02:33.517Z,5.32
2019-03-18T07:03:33.516Z,5.40
2019-03-18T07:04:33.492Z,5.40
2019-03-18T07:05:33.490Z,5.27
2019-03-18T07:06:33.499Z,5.34
2019-03-18T07:07:33.467Z,5.36
2019-03-18T07:08:33.463Z,5.36
2019-03-18T07:09:33.436Z,5.43
2019-03-18T07:10:33.432Z,5.52
2019-03-18T07:11:33.415Z,5.47
2019-03-18T07:12:33.423Z,5.52
2019-03-18T07:13:33.479Z,5.62
2019-03-18T07:14:33.382Z,5.65
2019-03-18T07:15:33.379Z,5.67
2019-03-18T07:16:33.426Z,5.70
2019-03-18T07:17:33.390Z,5.75
2019-03-18T07:18:33.368Z,5.79
2019-03-18T07:19:33.347Z,5.79
2019-03-18T07:20:33.323Z,5.82
2019-03-18T07:21:33.308Z,5.75
2019-03-18T07:22:33.320Z,5.84
2019-03-18T07:23:33.300Z,5.80
2019-03-18T07:24:33.288Z,5.82
2019-03-18T07:25:33.264Z,5.98
2019-03-18T07:26:33.255Z,5.91
2019-03-18T07:27:33.261Z,5.95
2019-03-18T07:28:33.257Z,5.94
2019-03-18T07:29:33.233Z,5.91
2019-03-18T07:30:33.207Z,6.08
2019-03-18T07:31:33.195Z,6.11
2019-03-18T07:32:33.186Z,6.18
2019-03-18T07:33:33.177Z,6.15
2019-03-18T07:34:33.203Z,6.28
2019-03-18T07:35:33.158Z,6.25
2019-03-18T07:36:33.143Z,6.34
2019-03-18T07:37:33.135Z,6.46
2019-03-18T07:38:33.126Z,6.43
2019-03-18T07:39:33.121Z,6.45
2019-03-18T07:40:33.111Z,6.49
2019-03-18T07:41:33.090Z,6.46
2019-03-18T07:42:33.077Z,6.50
2019-03-18T07:43:33.068Z,6.49
2019-03-18T07:44:33.072Z,6.45
2019-03-18T07:45:33.045Z,6.63
2019-03-18T07:46:33.045Z,6.61
2019-03-18T07:47:33.025Z,6.52
2019-03-18T07:48:33.016Z,6.50
2019-03-18T07:49:33.018Z,6.61
2019-03-18T07:50:32.994Z,6.57
2019-03-18T07:51:32.986Z,6.63
2019-03-18T07:52:32.967Z,6.64
2019-03-18T07:53:32.957Z,6.60
2019-03-18T07:54:33.362Z,6.60
2019-03-18T07:55:32.940Z,6.64
2019-03-18T07:56:32.932Z,6.57
2019-03-18T07:57:32.946Z,6.55
2019-03-18T07:58:32.903Z,6.57
2019-03-18T07:59:32.912Z,6.65
2019-03-18T08:00:32.883Z,6.65
2019-03-18T08:01:32.884Z,6.64
2019-03-18T08:02:32.859Z,6.65
2019-03-18T08:03:32.852Z,6.61
2019-03-18T08:04:37.539Z,6.56
2019-03-18T08:05:33.829Z,6.64
2019-03-18T08:06:32.821Z,6.63
2019-03-18T08:07:32.811Z,6.60
2019-03-18T08:08:32.936Z,6.63
2019-03-18T08:09:32.788Z,6.70
2019-03-18T08:10:32.788Z,6.68
2019-03-18T08:11:32.762Z,6.70
2019-03-18T08:12:32.754Z,6.79
2019-03-18T08:13:32.742Z,6.83
2019-03-18T08:14:32.747Z,6.89
2019-03-18T08:15:32.734Z,7.00
2019-03-18T08:16:32.715Z,7.01
2019-03-18T08:17:32.709Z,7.07
2019-03-18T08:18:42.699Z,7.07
2019-03-18T08:19:33.675Z,7.10
2019-03-18T08:20:32.708Z,7.28
2019-03-18T08:21:32.654Z,7.31
2019-03-18T08:22:32.646Z,7.26
2019-03-18T08:23:32.637Z,7.62
2019-03-18T08:24:32.624Z,8.57
2019-03-18T08:25:32.628Z,8.74
2019-03-18T08:26:32.602Z,8.37
2019-03-18T08:27:32.588Z,8.10
2019-03-18T08:28:32.578Z,8.29
2019-03-18T08:29:32.566Z,8.05
2019-03-18T08:30:32.574Z,8.01
2019-03-18T08:31:32.547Z,8.16
2019-03-18T08:32:32.536Z,7.98
2019-03-18T08:33:32.526Z,8.02
2019-03-18T08:34:32.518Z,7.88
2019-03-18T08:35:32.519Z,7.98
2019-03-18T08:36:32.490Z,8.01
2019-03-18T08:37:32.480Z,8.10
2019-03-18T08:38:32.474Z,8.12
2019-03-18T08:39:32.473Z,8.29
2019-03-18T08:40:32.461Z,8.24
2019-03-18T08:41:32.438Z,8.21
2019-03-18T08:42:32.436Z,8.31
2019-03-18T08:43:32.415Z,8.17
2019-03-18T08:44:32.403Z,8.14
2019-03-18T08:45:32.426Z,8.05
2019-03-18T08:46:32.397Z,8.13
2019-03-18T08:47:32.374Z,8.12
2019-03-18T08:48:32.363Z,8.06
2019-03-18T08:49:32.349Z,8.13
2019-03-18T08:50:32.354Z,7.86
2019-03-18T08:51:32.331Z,7.92
2019-03-18T08:52:32.323Z,7.84
2019-03-18T08:53:32.316Z,7.87
2019-03-18T08:54:32.297Z,7.86
2019-03-18T08:55:32.306Z,7.88
2019-03-18T08:56:32.274Z,7.80
2019-03-18T08:57:32.309Z,7.62
2019-03-18T08:58:32.260Z,7.73
2019-03-18T08:59:32.245Z,7.66
2019-03-18T09:00:32.245Z,7.64
2019-03-18T09:01:32.221Z,7.61
2019-03-18T09:02:32.209Z,7.68
2019-03-18T09:03:32.214Z,7.61
2019-03-18T09:04:32.189Z,7.49
2019-03-18T09:05:32.197Z,7.46
2019-03-18T09:06:32.184Z,7.43
2019-03-18T09:07:32.164Z,7.33
2019-03-18T09:08:32.147Z,7.25
2019-03-18T09:09:32.139Z,7.31
2019-03-18T09:10:32.137Z,7.25
2019-03-18T09:11:32.115Z,7.29
2019-03-18T09:12:32.106Z,7.26
2019-03-18T09:13:32.253Z,7.15
2019-03-18T09:14:32.079Z,7.18
2019-03-18T09:15:32.092Z,7.26
2019-03-18T09:16:32.074Z,7.21
2019-03-18T09:17:32.055Z,7.29
2019-03-18T09:18:32.047Z,7.42
2019-03-18T09:19:32.037Z,7.55
2019-03-18T09:20:32.025Z,7.55
2019-03-18T09:21:32.004Z,7.64
2019-03-18T09:22:31.995Z,7.73
2019-03-18T09:23:31.985Z,7.83
2019-03-18T09:24:31.978Z,7.88
2019-03-18T09:25:31.995Z,7.94
2019-03-18T09:26:31.951Z,7.92
2019-03-18T09:27:31.939Z,8.05
2019-03-18T09:28:32.016Z,8.21
2019-03-18T09:29:31.922Z,8.44
2019-03-18T09:30:31.931Z,8.72
2019-03-18T09:31:31.897Z,8.86
2019-03-18T09:32:31.938Z,9.08
2019-03-18T09:33:31.885Z,9.19
2019-03-18T09:34:31.864Z,9.36
2019-03-18T09:35:31.891Z,9.47
2019-03-18T09:36:31.840Z,9.41
2019-03-18T09:37:31.829Z,9.52
2019-03-18T09:38:31.831Z,9.41
2019-03-18T09:39:31.815Z,9.48
2019-03-18T09:40:31.810Z,9.42
2019-03-18T09:41:31.799Z,9.54
2019-03-18T09:42:31.775Z,9.42
2019-03-18T09:43:31.773Z,9.45
2019-03-18T09:44:31.782Z,9.40
2019-03-18T09:45:31.774Z,9.32
2019-03-18T09:46:31.755Z,9.18
2019-03-18T09:47:31.728Z,9.11
2019-03-18T09:48:31.716Z,9.08
2019-03-18T09:49:31.699Z,8.93
2019-03-18T09:50:31.698Z,8.86
2019-03-18T09:51:31.777Z,8.86
2019-03-18T09:52:31.680Z,8.95
2019-03-18T09:53:31.659Z,8.85
2019-03-18T09:54:31.656Z,8.85
2019-03-18T09:55:31.634Z,8.74
2019-03-18T09:56:31.696Z,8.57
2019-03-18T09:57:31.683Z,8.57
2019-03-18T09:58:31.602Z,8.52
2019-03-18T09:59:31.600Z,8.42
2019-03-18T10:00:31.580Z,8.44
2019-03-18T10:01:31.582Z,8.31
2019-03-18T10:02:31.564Z,8.31
2019-03-18T10:03:31.554Z,8.24
2019-03-18T10:04:31.536Z,8.24
2019-03-18T10:05:31.526Z,8.32
2019-03-18T10:06:31.526Z,8.31
2019-03-18T10:07:31.505Z,8.32
2019-03-18T10:08:31.511Z,8.41
2019-03-18T10:09:31.494Z,8.42
2019-03-18T10:10:31.494Z,8.39
2019-03-18T10:11:31.470Z,8.24
2019-03-18T10:12:31.450Z,8.34
2019-03-18T10:13:31.438Z,8.39
2019-03-18T10:14:31.425Z,8.28
2019-03-18T10:15:31.428Z,8.32
2019-03-18T10:16:31.427Z,8.21
2019-03-18T10:17:31.391Z,8.29
2019-03-18T10:18:31.381Z,8.37
2019-03-18T10:19:33.642Z,8.46
2019-03-18T10:20:31.383Z,8.56
2019-03-18T10:21:31.396Z,8.57
2019-03-18T10:22:31.346Z,8.60
2019-03-18T10:23:31.330Z,8.62
2019-03-18T10:24:31.318Z,8.57
2019-03-18T10:25:31.321Z,8.60
2019-03-18T10:26:31.312Z,8.60
2019-03-18T10:27:31.288Z,8.50
2019-03-18T10:28:31.422Z,8.46
2019-03-18T10:29:31.291Z,8.37
2019-03-18T10:30:33.872Z,8.38
2019-03-18T10:31:31.266Z,8.32
2019-03-18T10:32:31.230Z,8.23
2019-03-18T10:33:31.219Z,8.13
2019-03-18T10:34:31.217Z,8.09
2019-03-18T10:35:31.213Z,7.98
2019-03-18T10:36:31.205Z,7.99
2019-03-18T10:37:31.180Z,8.14
2019-03-18T10:38:31.164Z,8.29
2019-03-18T10:39:31.157Z,8.24
2019-03-18T10:40:31.159Z,8.46
2019-03-18T10:41:31.153Z,8.70
2019-03-18T10:42:31.128Z,8.83
2019-03-18T10:43:31.115Z,8.98
2019-03-18T10:44:31.116Z,9.24
2019-03-18T10:45:31.097Z,9.73
2019-03-18T10:46:31.111Z,9.94
2019-03-18T10:47:31.124Z,10.09
2019-03-18T10:48:31.059Z,10.17
2019-03-18T10:49:31.049Z,10.26
2019-03-18T10:50:31.037Z,10.24
2019-03-18T10:51:32.041Z,10.43
2019-03-18T10:52:31.061Z,10.48
2019-03-18T10:53:31.012Z,10.62
2019-03-18T10:54:31.447Z,10.58
2019-03-18T10:55:30.982Z,10.46
2019-03-18T10:56:30.988Z,10.58
2019-03-18T10:57:30.963Z,10.49
2019-03-18T10:58:30.952Z,10.57
2019-03-18T10:59:30.985Z,10.49
2019-03-18T11:00:30.925Z,10.46
2019-03-18T11:01:30.950Z,10.24
2019-03-18T11:02:30.907Z,10.30
2019-03-18T11:03:30.906Z,10.35
2019-03-18T11:04:30.892Z,10.28
2019-03-18T11:05:30.875Z,10.14
2019-03-18T11:06:30.910Z,10.10
2019-03-18T11:07:30.852Z,10.02
2019-03-18T11:08:30.838Z,9.99
2019-03-18T11:09:30.837Z,10.05
2019-03-18T11:10:30.825Z,10.12
2019-03-18T11:11:30.806Z,9.90
2019-03-18T11:12:30.824Z,9.91
2019-03-18T11:13:30.782Z,10.09
2019-03-18T11:14:30.794Z,10.17
2019-03-18T11:15:30.761Z,10.28
2019-03-18T11:16:31.529Z,10.41
2019-03-18T11:17:30.770Z,10.43
2019-03-18T11:18:30.757Z,10.35
2019-03-18T11:19:30.724Z,10.08
2019-03-18T11:20:30.719Z,10.09
2019-03-18T11:21:30.696Z,10.18
2019-03-18T11:22:30.703Z,10.23
2019-03-18T11:23:30.680Z,10.16
2019-03-18T11:24:30.667Z,10.03
2019-03-18T11:25:30.659Z,10.28
2019-03-18T11:26:30.660Z,10.73
2019-03-18T11:27:30.645Z,11.16
2019-03-18T11:28:30.627Z,11.48
2019-03-18T11:29:30.666Z,11.59
2019-03-18T11:30:30.598Z,11.77
2019-03-18T11:31:30.650Z,12.44
2019-03-18T11:32:30.599Z,12.81
2019-03-18T11:33:30.568Z,13.39
2019-03-18T11:34:30.592Z,13.57
2019-03-18T11:35:30.542Z,13.24
2019-03-18T11:36:31.682Z,13.13
2019-03-18T11:37:30.568Z,12.90
2019-03-18T11:38:31.955Z,12.51
2019-03-18T11:39:30.498Z,12.14
2019-03-18T11:40:30.488Z,12.00
2019-03-18T11:41:30.478Z,12.03
2019-03-18T11:42:30.484Z,11.85
2019-03-18T11:43:30.475Z,12.48
2019-03-18T11:44:30.443Z,12.33
2019-03-18T11:45:30.440Z,12.26
2019-03-18T11:46:30.425Z,12.17
2019-03-18T11:47:30.420Z,12.26
2019-03-18T11:48:30.437Z,12.96
2019-03-18T11:49:39.045Z,13.02
2019-03-18T11:50:31.382Z,12.55
2019-03-18T11:51:30.390Z,12.32
2019-03-18T11:52:32.746Z,12.13
2019-03-18T11:53:30.385Z,11.95
2019-03-18T11:54:30.393Z,11.76
2019-03-18T11:55:30.338Z,11.70
2019-03-18T11:56:30.321Z,11.69
2019-03-18T11:57:30.527Z,11.55
2019-03-18T11:58:30.339Z,11.89
2019-03-18T11:59:30.337Z,12.38
2019-03-18T12:00:30.282Z,12.23
2019-03-18T12:01:30.274Z,11.89
2019-03-18T12:02:30.257Z,11.89
2019-03-18T12:03:30.268Z,11.97
2019-03-18T12:04:32.727Z,12.41
2019-03-18T12:05:30.229Z,13.09
2019-03-18T12:06:30.203Z,13.02
2019-03-18T12:07:30.205Z,13.72
2019-03-18T12:08:30.244Z,14.23
2019-03-18T12:09:30.177Z,14.74
2019-03-18T12:10:30.163Z,14.74
2019-03-18T12:11:30.157Z,14.52
2019-03-18T12:12:30.161Z,14.53
2019-03-18T12:13:30.159Z,14.34
2019-03-18T12:14:30.120Z,14.08
2019-03-18T12:15:30.111Z,13.96
2019-03-18T12:16:30.144Z,13.86
2019-03-18T12:17:30.102Z,13.79
2019-03-18T12:18:30.121Z,13.57
2019-03-18T12:19:30.076Z,13.17
2019-03-18T12:20:33.022Z,12.96
2019-03-18T12:21:30.085Z,12.95
2019-03-18T12:22:30.092Z,13.58
2019-03-18T12:23:30.073Z,13.71
2019-03-18T12:24:30.081Z,13.63
2019-03-18T12:25:29.998Z,13.55
2019-03-18T12:26:30.005Z,13.53
2019-03-18T12:27:30.114Z,13.61
2019-03-18T12:28:29.997Z,13.43
2019-03-18T12:29:29.968Z,13.23
2019-03-18T12:30:29.959Z,13.13
2019-03-18T12:31:29.955Z,12.79
2019-03-18T12:32:29.935Z,12.65
2019-03-18T12:33:29.994Z,12.36
2019-03-18T12:34:29.916Z,12.03
2019-03-18T12:35:29.945Z,11.82
2019-03-18T12:36:29.903Z,11.49
2019-03-18T12:37:29.879Z,11.22
2019-03-18T12:38:29.902Z,11.04
2019-03-18T12:39:29.872Z,10.61
2019-03-18T12:40:29.847Z,10.24
2019-03-18T12:41:29.850Z,10.12
2019-03-18T12:42:29.827Z,9.87
2019-03-18T12:43:29.822Z,9.77
2019-03-18T12:44:29.844Z,10.02
2019-03-18T12:45:29.820Z,10.27
2019-03-18T12:46:29.774Z,10.87
2019-03-18T12:47:29.758Z,11.49
2019-03-18T12:48:29.779Z,12.07
2019-03-18T12:49:29.740Z,12.48
2019-03-18T12:50:49.116Z,12.79
2019-03-18T12:51:30.714Z,12.47
2019-03-18T12:52:29.707Z,12.72
2019-03-18T12:53:29.753Z,12.93
2019-03-18T12:54:29.680Z,13.20
2019-03-18T12:55:29.683Z,13.53
2019-03-18T12:56:29.679Z,13.63
2019-03-18T12:57:29.676Z,13.23
2019-03-18T12:58:29.694Z,13.04
2019-03-18T12:59:29.644Z,12.73
2019-03-18T13:00:29.622Z,12.35
2019-03-18T13:01:30.080Z,12.08
2019-03-18T13:02:29.614Z,11.79
2019-03-18T13:03:29.582Z,11.66
2019-03-18T13:04:29.590Z,11.95
2019-03-18T13:05:29.594Z,12.51
2019-03-18T13:06:29.556Z,13.01
2019-03-18T13:07:29.550Z,13.42
2019-03-18T13:08:29.534Z,13.75
2019-03-18T13:09:29.539Z,14.11
2019-03-18T13:10:29.528Z,14.38
2019-03-18T13:11:29.555Z,14.82
2019-03-18T13:12:29.517Z,15.03
2019-03-18T13:13:29.523Z,15.26